createdAt,value
2022-10-22T00:07:30.424Z,986.1
2022-10-22T00:09:02.798Z,986
2022-10-22T00:14:21.975Z,986
2022-10-22T00:19:41.122Z,985.9
2022-10-22T00:25:00.669Z,985.8
2022-10-22T00:31:34.829Z,986.1
2022-10-22T00:35:38.893Z,986
2022-10-22T00:40:57.722Z,986.1
2022-10-22T00:46:16.907Z,986
2022-10-22T00:51:44.729Z,985.9
2022-10-22T00:56:55.878Z,985.9
2022-10-22T01:03:29.997Z,985.8
2022-10-22T01:12:54.968Z,985.8
2022-10-22T01:18:12.666Z,985.7
2022-10-22T01:23:32.055Z,985.7
2022-10-22T01:28:51.418Z,985.6
2022-10-22T01:34:10.173Z,985.6
2022-10-22T01:39:29.039Z,985.6
2022-10-22T01:44:47.894Z,985.7
2022-10-22T01:50:07.074Z,985.9
2022-10-22T01:56:41.269Z,985.8
2022-10-22T02:00:46.364Z,986
2022-10-22T02:06:05.872Z,986
2022-10-22T02:11:22.987Z,986.2
2022-10-22T02:16:41.813Z,986.2
2022-10-22T02:22:00.592Z,986.3
2022-10-22T02:22:25.649Z,986.3
2022-10-22T02:27:45.147Z,986.4
2022-10-22T02:33:04.712Z,986.3
2022-10-22T02:38:23.013Z,986.4
2022-10-22T02:43:43.187Z,986.3
2022-10-22T02:49:01.611Z,986.4
2022-10-22T02:54:20.767Z,986.3
2022-10-22T02:59:41.101Z,986.3
2022-10-22T03:04:59.411Z,986.2
2022-10-22T03:10:18.634Z,986.2
2022-10-22T03:15:38.088Z,986.3
2022-10-22T03:20:57.619Z,986.5
2022-10-22T03:26:17.642Z,986.6
2022-10-22T03:32:51.818Z,986.7
2022-10-22T03:36:57.882Z,986.6
2022-10-22T03:42:15.333Z,986.6
2022-10-22T03:47:35.724Z,986.5
2022-10-22T03:52:53.798Z,986.5
2022-10-22T03:58:12.796Z,986.5
2022-10-22T04:03:32.370Z,986.7
2022-10-22T04:08:51.693Z,986.6
2022-10-22T04:14:11.029Z,986.6
2022-10-22T04:19:30.062Z,986.6
2022-10-22T04:24:48.865Z,986.7
2022-10-22T04:30:08.417Z,986.8
2022-10-22T04:35:27.327Z,986.7
2022-10-22T04:40:45.379Z,986.8
2022-10-22T04:46:04.956Z,987
2022-10-22T04:51:25.400Z,987
2022-10-22T04:56:45.021Z,987.1
2022-10-22T05:02:13.095Z,987.3
2022-10-22T05:07:23.214Z,987.4
2022-10-22T05:13:57.364Z,987.4
2022-10-22T05:18:01.224Z,987.4
2022-10-22T05:23:20.030Z,987.4
2022-10-22T05:28:39.549Z,987.5
2022-10-22T05:35:13.678Z,987.5
2022-10-22T05:39:28.309Z,987.4
2022-10-22T05:44:36.706Z,987.6
2022-10-22T05:49:56.477Z,987.7
2022-10-22T05:55:15.124Z,987.8
2022-10-22T06:00:34.275Z,987.8
2022-10-22T06:05:53.438Z,987.9
2022-10-22T06:11:20.876Z,988
2022-10-22T06:16:32.331Z,988.1
2022-10-22T06:21:52.174Z,988.2
2022-10-22T06:27:11.374Z,988.3
2022-10-22T06:32:30.676Z,988.4
2022-10-22T06:37:49.587Z,988.5
2022-10-22T06:43:08.835Z,988.6
2022-10-22T06:48:27.853Z,988.7
2022-10-22T06:53:47.320Z,988.7
2022-10-22T06:59:06.951Z,988.7
2022-10-22T07:05:41.069Z,988.8
2022-10-22T07:15:17.974Z,989
2022-10-22T07:20:25.480Z,989.1
2022-10-22T07:25:44.865Z,989.1
2022-10-22T07:31:03.759Z,989.2
2022-10-22T07:36:22.611Z,989.3
2022-10-22T07:41:42.336Z,989.3
2022-10-22T07:47:01.199Z,989.3
2022-10-22T07:52:20.467Z,989.4
2022-10-22T07:57:40.090Z,989.3
2022-10-22T08:02:58.882Z,989.4
2022-10-22T08:08:18.501Z,989.5
2022-10-22T08:13:41.589Z,989.5
2022-10-22T08:18:57.221Z,989.5
2022-10-22T08:24:15.313Z,989.5
2022-10-22T08:29:34.352Z,989.5
2022-10-22T08:34:53.883Z,989.5
2022-10-22T08:40:13.307Z,989.5
2022-10-22T08:45:33.008Z,989.5
2022-10-22T08:50:52.454Z,989.5
2022-10-22T08:56:11.778Z,989.5
2022-10-22T09:02:45.964Z,989.5
2022-10-22T09:07:02.452Z,989.5
2022-10-22T09:12:09.837Z,989.5
2022-10-22T09:17:29.317Z,989.5
2022-10-22T09:22:48.798Z,989.4
2022-10-22T09:31:21.869Z,989.5
2022-10-22T09:33:27.159Z,989.5
2022-10-22T09:44:05.970Z,989.5
2022-10-22T09:49:23.478Z,989.6
2022-10-22T09:54:42.804Z,989.7
2022-10-22T10:00:01.914Z,989.7
2022-10-22T10:05:21.369Z,989.7
2022-10-22T10:10:40.103Z,989.8
2022-10-22T10:15:59.739Z,989.9
2022-10-22T10:21:18.816Z,989.9
2022-10-22T10:27:52.954Z,989.9
2022-10-22T10:31:57.391Z,990
2022-10-22T10:37:16.347Z,990.1
2022-10-22T10:42:35.538Z,990.1
2022-10-22T10:47:54.275Z,990.2
2022-10-22T10:53:13.002Z,990.3
2022-10-22T10:58:32.462Z,990.3
2022-10-22T11:05:06.626Z,990.3
2022-10-22T11:09:10.861Z,990.2
2022-10-22T11:14:30.181Z,990.2
2022-10-22T11:19:52.439Z,990.3
2022-10-22T11:25:07.697Z,990.2
2022-10-22T11:30:27.775Z,990.2
2022-10-22T11:35:46.388Z,990.2
2022-10-22T11:41:06.125Z,990.2
2022-10-22T11:46:24.264Z,990.1
2022-10-22T11:51:43.795Z,990.1
2022-10-22T11:57:03.384Z,990.1
2022-10-22T12:02:22.255Z,990.1
2022-10-22T12:07:41.087Z,990.1
2022-10-22T12:13:00.231Z,990
2022-10-22T12:19:34.439Z,990
2022-10-22T12:23:39.073Z,989.9
2022-10-22T12:30:37.688Z,989.9
2022-10-22T12:34:19.058Z,989.8
2022-10-22T12:39:37.496Z,989.7
2022-10-22T12:44:56.726Z,989.7
2022-10-22T12:50:15.954Z,989.7
2022-10-22T12:55:35.008Z,989.7
2022-10-22T13:00:53.729Z,989.7
2022-10-22T13:07:27.833Z,989.7
2022-10-22T13:11:44.378Z,989.6
2022-10-22T13:16:53.368Z,989.6
2022-10-22T13:22:11.539Z,989.6
2022-10-22T13:27:30.271Z,989.6
2022-10-22T13:32:49.268Z,989.7
2022-10-22T13:39:23.433Z,989.6
2022-10-22T13:43:38.830Z,989.6
2022-10-22T13:48:45.857Z,989.5
2022-10-22T13:54:05.080Z,989.6
2022-10-22T13:59:23.802Z,989.6
2022-10-22T14:04:43.206Z,989.6
2022-10-22T14:10:02.019Z,989.6
2022-10-22T14:16:36.216Z,989.6
2022-10-22T14:20:42.105Z,989.6
2022-10-22T14:26:00.767Z,989.6
2022-10-22T14:31:18.698Z,989.6
2022-10-22T14:36:37.578Z,989.6
2022-10-22T14:41:56.447Z,989.6
2022-10-22T14:47:15.950Z,989.7
2022-10-22T14:52:35.469Z,989.7
2022-10-22T14:57:55.067Z,989.8
2022-10-22T15:03:14.612Z,989.9
2022-10-22T15:08:33.791Z,989.9
2022-10-22T15:15:07.879Z,990
2022-10-22T15:19:24.418Z,990.1
2022-10-22T15:24:31.978Z,990.1
2022-10-22T15:29:51.355Z,990.1
2022-10-22T15:35:10.184Z,990.1
2022-10-22T15:40:29.618Z,990.1
2022-10-22T15:45:57.005Z,990.1
2022-10-22T15:51:05.870Z,990.3
2022-10-22T15:56:33.718Z,990.3
2022-10-22T16:01:43.762Z,990.4
2022-10-22T16:07:03.152Z,990.4
2022-10-22T16:12:22.288Z,990.4
2022-10-22T16:17:41.678Z,990.4
2022-10-22T16:23:01.609Z,990.5
2022-10-22T16:28:21.186Z,990.4
2022-10-22T16:33:42.896Z,990.4
2022-10-22T16:39:00.042Z,990.4
2022-10-22T16:44:18.936Z,990.5
2022-10-22T16:49:38.447Z,990.5
2022-10-22T16:54:58.152Z,990.5
2022-10-22T17:00:17.799Z,990.5
2022-10-22T17:05:36.815Z,990.6
2022-10-22T17:10:56.331Z,990.6
2022-10-22T17:16:15.394Z,990.6
2022-10-22T17:21:34.833Z,990.7
2022-10-22T17:26:54.929Z,990.7
2022-10-22T17:33:29.090Z,990.8
2022-10-22T17:37:34.455Z,990.8
2022-10-22T17:42:51.918Z,991
2022-10-22T17:48:11.262Z,991.1
2022-10-22T17:53:30.908Z,991
2022-10-22T17:58:50.855Z,991
2022-10-22T18:04:08.843Z,991.1
2022-10-22T18:09:28.733Z,991.2
2022-10-22T18:14:47.661Z,991.2
2022-10-22T18:20:06.632Z,991.2
2022-10-22T18:30:45.154Z,991.3
2022-10-22T18:36:04.067Z,991.4
2022-10-22T18:41:23.714Z,991.3
2022-10-22T18:46:44.050Z,991.2
2022-10-22T18:52:02.778Z,991.3
2022-10-22T18:57:21.986Z,991.3
2022-10-22T19:02:41.565Z,991.3
2022-10-22T19:08:00.215Z,991.3
2022-10-22T19:13:19.506Z,991.2
2022-10-22T19:18:39.066Z,991.2
2022-10-22T19:23:58.722Z,991.3
2022-10-22T19:29:16.837Z,991.2
2022-10-22T19:34:46.306Z,991.1
2022-10-22T19:39:55.298Z,991.2
2022-10-22T19:45:14.918Z,991.1
2022-10-22T19:51:49.033Z,991.2
2022-10-22T19:55:53.690Z,991.2
2022-10-22T20:01:12.895Z,991.1
2022-10-22T20:06:31.264Z,991.2
2022-10-22T20:11:50.825Z,991.2
2022-10-22T20:17:09.007Z,991.2
2022-10-22T20:23:03.235Z,991.2
2022-10-22T20:28:22.518Z,991.2
2022-10-22T20:33:42.025Z,991.2
2022-10-22T20:39:01.087Z,991.2
2022-10-22T20:44:20.690Z,991.2
2022-10-22T20:49:39.589Z,991.3
2022-10-22T20:54:58.490Z,991.3
2022-10-22T21:00:18.156Z,991.3
2022-10-22T21:05:37.507Z,991.3
2022-10-22T21:10:57.258Z,991.3
2022-10-22T21:16:16.249Z,991.4
2022-10-22T21:21:35.742Z,991.4
2022-10-22T21:26:53.940Z,991.4
2022-10-22T21:32:12.939Z,991.4
2022-10-22T21:37:32.237Z,991.3
2022-10-22T21:42:51.791Z,991.2
2022-10-22T21:49:25.977Z,991.2
2022-10-22T21:53:30.842Z,991.2
2022-10-22T21:58:50.217Z,991
2022-10-22T22:07:23.314Z,991
2022-10-22T22:14:48.688Z,990.9
2022-10-22T22:20:07.527Z,991
2022-10-22T22:25:27.065Z,991
2022-10-22T22:30:44.711Z,990.9
2022-10-22T22:37:43.447Z,990.8
2022-10-22T22:41:23.050Z,990.8
2022-10-22T22:46:42.260Z,990.9
2022-10-22T22:52:01.396Z,990.9
2022-10-22T22:57:21.038Z,990.9
2022-10-22T23:02:40.251Z,990.9
2022-10-22T23:07:58.677Z,991
2022-10-22T23:13:18.122Z,991.1
2022-10-22T23:18:37.268Z,991
2022-10-22T23:23:57.754Z,991.1
2022-10-22T23:29:15.999Z,991.1
2022-10-22T23:34:36.198Z,990.9
2022-10-22T23:39:55.192Z,990.8
2022-10-22T23:45:14.726Z,990.8
2022-10-22T23:50:33.759Z,990.8
2022-10-22T23:55:52.633Z,990.8
